createdAt,value
2018-02-12T00:00:09.147Z,1.29
2018-02-12T00:01:19.264Z,1.22
2018-02-12T00:02:29.423Z,1.25
2018-02-12T00:03:39.288Z,1.15
2018-02-12T00:04:49.430Z,1.18
2018-02-12T00:05:59.547Z,1.17
2018-02-12T00:07:09.720Z,1.17
2018-02-12T00:08:19.834Z,1.18
2018-02-12T00:09:29.990Z,1.12
2018-02-12T00:10:40.109Z,1.24
2018-02-12T00:11:50.246Z,1.17
2018-02-12T00:13:00.345Z,1.15
2018-02-12T00:14:10.502Z,1.2
2018-02-12T00:15:20.626Z,1.15
2018-02-12T00:16:30.496Z,1.2
2018-02-12T00:17:40.376Z,1.06
2018-02-12T00:18:50.520Z,1.1
2018-02-12T00:20:00.766Z,0.99
2018-02-12T00:21:10.914Z,1.06
2018-02-12T00:22:21.086Z,1
2018-02-12T00:23:31.311Z,1.04
2018-02-12T00:24:41.447Z,1.04
2018-02-12T00:25:51.711Z,1
2018-02-12T00:27:01.581Z,1.04
2018-02-12T00:28:12.680Z,1.12
2018-02-12T00:29:22.802Z,1.03
2018-02-12T00:30:32.956Z,1.12
2018-02-12T00:31:43.097Z,1.04
2018-02-12T00:32:53.202Z,1
2018-02-12T00:34:03.310Z,1.04
2018-02-12T00:35:13.524Z,1.02
2018-02-12T00:36:23.720Z,0.99
2018-02-12T00:37:33.915Z,1.02
2018-02-12T00:38:44.158Z,1.03
2018-02-12T00:39:54.342Z,1.06
2018-02-12T00:41:04.484Z,1.02
2018-02-12T00:42:14.588Z,0.9
2018-02-12T00:43:24.458Z,0.99
2018-02-12T00:44:34.684Z,0.96
2018-02-12T00:45:44.896Z,0.9
2018-02-12T00:46:55.021Z,0.85
2018-02-12T00:48:05.136Z,0.82
2018-02-12T00:49:15.249Z,0.81
2018-02-12T00:50:25.404Z,0.84
2018-02-12T00:51:35.553Z,0.9
2018-02-12T00:52:45.761Z,0.78
2018-02-12T00:53:55.971Z,0.86
2018-02-12T00:55:06.139Z,0.86
2018-02-12T00:56:16.986Z,0.93
2018-02-12T00:57:27.116Z,0.85
2018-02-12T00:58:37.243Z,0.78
2018-02-12T00:59:47.339Z,0.82
2018-02-12T01:00:57.264Z,0.81
2018-02-12T01:02:07.388Z,0.93
2018-02-12T01:03:17.493Z,0.9
2018-02-12T01:04:27.347Z,0.9
2018-02-12T01:05:37.466Z,0.82
2018-02-12T01:06:47.427Z,0.85
2018-02-12T01:07:57.753Z,0.85
2018-02-12T01:09:07.932Z,0.84
2018-02-12T01:10:18.093Z,0.76
2018-02-12T01:11:28.435Z,0.78
2018-02-12T01:12:38.279Z,0.92
2018-02-12T01:13:48.375Z,0.84
2018-02-12T01:14:58.510Z,0.94
2018-02-12T01:16:08.709Z,0.97
2018-02-12T01:17:18.985Z,0.97
2018-02-12T01:18:29.118Z,1.03
2018-02-12T01:19:39.300Z,0.93
2018-02-12T01:20:49.407Z,0.85
2018-02-12T01:21:59.511Z,0.97
2018-02-12T01:23:10.653Z,1.02
2018-02-12T01:24:20.794Z,1.08
2018-02-12T01:25:30.645Z,1.06
2018-02-12T01:26:40.787Z,1
2018-02-12T01:27:50.644Z,1.14
2018-02-12T01:29:00.787Z,1.03
2018-02-12T01:30:10.914Z,1.04
2018-02-12T01:31:21.041Z,1.02
2018-02-12T01:32:31.153Z,0.96
2018-02-12T01:33:41.293Z,0.9
2018-02-12T01:34:51.405Z,0.78
2018-02-12T01:36:01.570Z,0.81
2018-02-12T01:37:11.681Z,0.66
2018-02-12T01:38:21.618Z,0.6
2018-02-12T01:39:31.808Z,0.5
2018-02-12T01:40:42.010Z,0.42
2018-02-12T01:41:52.189Z,0.39
2018-02-12T01:43:02.335Z,0.33
2018-02-12T01:44:12.456Z,0.27
2018-02-12T01:45:22.616Z,0.31
2018-02-12T01:46:32.627Z,0.22
2018-02-12T01:47:42.777Z,0.24
2018-02-12T01:48:52.640Z,0.22
2018-02-12T01:50:02.748Z,0.28
2018-02-12T01:51:12.901Z,0.31
2018-02-12T01:52:22.998Z,0.25
2018-02-12T01:53:34.083Z,0.35
2018-02-12T01:54:44.197Z,0.31
2018-02-12T01:55:54.342Z,0.28
2018-02-12T01:57:04.205Z,0.3
2018-02-12T01:58:13.942Z,0.42
2018-02-12T01:59:24.191Z,0.36
2018-02-12T02:00:34.080Z,0.45
2018-02-12T02:01:44.205Z,0.39
2018-02-12T02:02:54.436Z,0.31
2018-02-12T02:04:04.294Z,0.36
2018-02-12T02:05:14.424Z,0.38
2018-02-12T02:06:24.525Z,0.33
2018-02-12T02:07:34.656Z,0.42
2018-02-12T02:08:44.295Z,0.42
2018-02-12T02:09:54.522Z,0.45
2018-02-12T02:11:04.617Z,0.43
2018-02-12T02:12:14.794Z,0.43
2018-02-12T02:13:24.661Z,0.45
2018-02-12T02:14:35.884Z,0.48
2018-02-12T02:15:46.910Z,0.5
2018-02-12T02:16:57.985Z,0.45
2018-02-12T02:18:08.170Z,0.46
2018-02-12T02:19:18.373Z,0.38
2018-02-12T02:20:28.563Z,0.42
2018-02-12T02:21:38.756Z,0.3
2018-02-12T02:22:48.911Z,0.28
2018-02-12T02:23:59.018Z,0.38
2018-02-12T02:25:09.169Z,0.33
2018-02-12T02:26:19.101Z,0.42
2018-02-12T02:27:29.228Z,0.31
2018-02-12T02:28:39.347Z,0.43
2018-02-12T02:29:49.523Z,0.4
2018-02-12T02:30:59.633Z,0.45
2018-02-12T02:32:09.473Z,0.39
2018-02-12T02:33:19.583Z,0.42
2018-02-12T02:34:29.698Z,0.48
2018-02-12T02:35:39.818Z,0.58
2018-02-12T02:36:49.929Z,0.53
2018-02-12T02:37:59.817Z,0.56
2018-02-12T02:39:09.929Z,0.61
2018-02-12T02:40:19.786Z,0.58
2018-02-12T02:41:29.999Z,0.53
2018-02-12T02:42:40.127Z,0.54
2018-02-12T02:43:50.231Z,0.5
2018-02-12T02:45:00.384Z,0.53
2018-02-12T02:46:10.559Z,0.45
2018-02-12T02:47:20.662Z,0.5
2018-02-12T02:48:30.780Z,0.4
2018-02-12T02:49:40.887Z,0.39
2018-02-12T02:50:51.006Z,0.43
2018-02-12T02:52:01.117Z,0.4
2018-02-12T02:53:11.311Z,0.36
2018-02-12T02:54:21.478Z,0.33
2018-02-12T02:55:31.573Z,0.46
2018-02-12T02:56:41.678Z,0.31
2018-02-12T02:57:51.898Z,0.39
2018-02-12T02:59:02.342Z,0.4
2018-02-12T03:00:12.477Z,0.43
2018-02-12T03:01:22.583Z,0.45
2018-02-12T03:02:32.751Z,0.39
2018-02-12T03:03:42.851Z,0.42
2018-02-12T03:04:52.988Z,0.57
2018-02-12T03:06:03.119Z,0.45
2018-02-12T03:07:13.238Z,0.45
2018-02-12T03:08:23.381Z,0.42
2018-02-12T03:09:33.489Z,0.38
2018-02-12T03:10:43.622Z,0.42
2018-02-12T03:11:53.507Z,0.43
2018-02-12T03:13:03.361Z,0.45
2018-02-12T03:14:13.490Z,0.45
2018-02-12T03:15:23.606Z,0.48
2018-02-12T03:16:33.713Z,0.45
2018-02-12T03:17:43.425Z,0.42
2018-02-12T03:18:53.516Z,0.4
2018-02-12T03:20:03.651Z,0.43
2018-02-12T03:21:13.761Z,0.49
2018-02-12T03:22:23.884Z,0.43
2018-02-12T03:23:34.094Z,0.43
2018-02-12T03:24:43.960Z,0.53
2018-02-12T03:25:53.607Z,0.53
2018-02-12T03:27:05.013Z,0.53
2018-02-12T03:28:15.242Z,0.53
2018-02-12T03:29:25.375Z,0.45
2018-02-12T03:30:35.529Z,0.5
2018-02-12T03:31:45.674Z,0.49
2018-02-12T03:32:55.777Z,0.58
2018-02-12T03:34:05.898Z,0.5
2018-02-12T03:35:16.009Z,0.5
2018-02-12T03:36:25.889Z,0.45
2018-02-12T03:37:35.997Z,0.48
2018-02-12T03:38:46.103Z,0.48
2018-02-12T03:39:56.374Z,0.49
2018-02-12T03:41:06.516Z,0.54
2018-02-12T03:42:16.661Z,0.56
2018-02-12T03:43:26.778Z,0.56
2018-02-12T03:44:36.893Z,0.56
2018-02-12T03:45:46.760Z,0.48
2018-02-12T03:46:56.610Z,0.54
2018-02-12T03:48:06.212Z,0.6
2018-02-12T03:49:16.060Z,0.6
2018-02-12T03:50:26.222Z,0.63
2018-02-12T03:51:36.090Z,0.58
2018-02-12T03:52:46.299Z,0.64
2018-02-12T03:53:56.604Z,0.61
2018-02-12T03:55:06.719Z,0.67
2018-02-12T03:56:16.885Z,0.67
2018-02-12T03:57:27.027Z,0.66
2018-02-12T03:58:36.926Z,0.66
2018-02-12T03:59:47.057Z,0.74
2018-02-12T04:00:56.927Z,0.78
2018-02-12T04:02:07.018Z,0.85
2018-02-12T04:03:17.391Z,0.79
2018-02-12T04:04:28.602Z,0.82
2018-02-12T04:05:38.793Z,0.81
2018-02-12T04:06:48.905Z,0.86
2018-02-12T04:07:59.013Z,0.85
2018-02-12T04:09:09.137Z,0.9
2018-02-12T04:10:19.256Z,0.9
2018-02-12T04:11:29.392Z,0.81
2018-02-12T04:12:39.552Z,0.85
2018-02-12T04:13:49.666Z,0.93
2018-02-12T04:14:59.783Z,0.97
2018-02-12T04:16:09.653Z,0.88
2018-02-12T04:17:19.772Z,0.84
2018-02-12T04:18:29.686Z,0.82
2018-02-12T04:19:39.666Z,0.85
2018-02-12T04:20:49.801Z,0.81
2018-02-12T04:22:00.107Z,0.72
2018-02-12T04:23:10.222Z,0.79
2018-02-12T04:24:20.451Z,0.68
2018-02-12T04:25:30.322Z,0.66
2018-02-12T04:26:40.459Z,0.71
2018-02-12T04:27:50.615Z,0.63
2018-02-12T04:29:00.721Z,0.68
2018-02-12T04:30:10.973Z,0.63
2018-02-12T04:31:21.164Z,0.61
2018-02-12T04:32:31.412Z,0.57
2018-02-12T04:33:41.604Z,0.56
2018-02-12T04:34:51.711Z,0.57
2018-02-12T04:36:01.837Z,0.57
2018-02-12T04:37:11.963Z,0.6
2018-02-12T04:38:22.167Z,0.57
2018-02-12T04:39:32.307Z,0.58
2018-02-12T04:40:42.513Z,0.6
2018-02-12T04:41:52.618Z,0.57
2018-02-12T04:43:03.004Z,0.57
2018-02-12T04:44:13.152Z,0.63
2018-02-12T04:45:23.265Z,0.6
2018-02-12T04:46:33.412Z,0.61
2018-02-12T04:47:43.519Z,0.57
2018-02-12T04:48:53.624Z,0.66
2018-02-12T04:50:03.366Z,0.74
2018-02-12T04:51:13.580Z,0.68
2018-02-12T04:52:23.809Z,0.68
2018-02-12T04:53:34.102Z,0.79
2018-02-12T04:54:43.985Z,0.75
2018-02-12T04:55:54.095Z,0.74
2018-02-12T04:57:03.977Z,0.67
2018-02-12T04:58:13.717Z,0.84
2018-02-12T04:59:23.856Z,0.84
2018-02-12T05:00:33.963Z,0.88
2018-02-12T05:01:44.085Z,0.93
2018-02-12T05:02:53.703Z,0.86
2018-02-12T05:04:03.568Z,1
2018-02-12T05:05:13.427Z,1.03
2018-02-12T05:06:23.568Z,1.02
2018-02-12T05:07:33.772Z,1.04
2018-02-12T05:08:43.615Z,1.03
2018-02-12T05:09:53.718Z,1.03
2018-02-12T05:11:03.826Z,0.99
2018-02-12T05:12:13.716Z,1.12
2018-02-12T05:13:23.689Z,1.11
2018-02-12T05:14:33.817Z,1.12
2018-02-12T05:15:43.930Z,1.17
2018-02-12T05:16:54.043Z,1.15
2018-02-12T05:18:04.177Z,1.11
2018-02-12T05:19:14.417Z,1.1
2018-02-12T05:20:24.302Z,1.1
2018-02-12T05:21:34.679Z,1.18
2018-02-12T05:22:44.831Z,1.18
2018-02-12T05:23:55.031Z,1.11
2018-02-12T05:25:05.166Z,1.17
2018-02-12T05:26:15.282Z,1.21
2018-02-12T05:27:25.158Z,1.2
2018-02-12T05:28:35.300Z,1.24
2018-02-12T05:29:45.428Z,1.25
2018-02-12T05:30:55.528Z,1.21
2018-02-12T05:32:05.468Z,1.3
2018-02-12T05:33:15.712Z,1.35
2018-02-12T05:34:25.895Z,1.22
2018-02-12T05:35:36.143Z,1.21
2018-02-12T05:36:46.021Z,1.2
2018-02-12T05:37:55.864Z,1.2
2018-02-12T05:39:06.002Z,1.22
2018-02-12T05:40:16.128Z,1.3
2018-02-12T05:41:26.254Z,1.32
2018-02-12T05:42:36.498Z,1.35
2018-02-12T05:43:46.662Z,1.32
2018-02-12T05:44:56.953Z,1.32
2018-02-12T05:46:07.089Z,1.33
2018-02-12T05:47:16.949Z,1.35
2018-02-12T05:48:27.056Z,1.32
2018-02-12T05:49:38.141Z,1.33
2018-02-12T05:50:48.239Z,1.29
2018-02-12T05:51:58.355Z,1.42
2018-02-12T05:53:08.464Z,1.42
2018-02-12T05:54:18.690Z,1.35
2018-02-12T05:55:28.563Z,1.33
2018-02-12T05:56:38.677Z,1.39
2018-02-12T05:57:48.884Z,1.4
2018-02-12T05:58:59.137Z,1.46
2018-02-12T06:00:09.272Z,1.43
2018-02-12T06:01:19.488Z,1.46
2018-02-12T06:02:29.669Z,1.51
2018-02-12T06:03:39.817Z,1.48
2018-02-12T06:04:49.930Z,1.46
2018-02-12T06:06:00.046Z,1.38
2018-02-12T06:07:10.289Z,1.47
2018-02-12T06:08:20.484Z,1.4
2018-02-12T06:09:30.670Z,1.5
2018-02-12T06:10:40.870Z,1.42
2018-02-12T06:11:51.050Z,1.46
2018-02-12T06:13:01.279Z,1.42
2018-02-12T06:14:11.490Z,1.46
2018-02-12T06:15:21.607Z,1.43
2018-02-12T06:16:31.716Z,1.5
2018-02-12T06:17:42.787Z,1.48
2018-02-12T06:18:52.896Z,1.48
2018-02-12T06:20:03.022Z,1.4
2018-02-12T06:21:14.126Z,1.39
2018-02-12T06:22:24.257Z,1.38
2018-02-12T06:23:34.366Z,1.51
2018-02-12T06:24:44.539Z,1.5
2018-02-12T06:25:54.828Z,1.48
2018-02-12T06:27:05.081Z,1.47
2018-02-12T06:28:16.195Z,1.39
2018-02-12T06:29:26.380Z,1.48
2018-02-12T06:30:36.235Z,1.51
2018-02-12T06:31:46.344Z,1.48
2018-02-12T06:32:56.508Z,1.46
2018-02-12T06:34:06.789Z,1.53
2018-02-12T06:35:16.930Z,1.47
2018-02-12T06:36:26.809Z,1.57
2018-02-12T06:37:36.930Z,1.54
2018-02-12T06:38:47.209Z,1.48
2018-02-12T06:39:57.340Z,1.5
2018-02-12T06:41:07.529Z,1.4
2018-02-12T06:42:17.633Z,1.55
2018-02-12T06:43:27.762Z,1.48
2018-02-12T06:44:37.884Z,1.46
2018-02-12T06:45:47.987Z,1.47
2018-02-12T06:46:58.091Z,1.43
2018-02-12T06:48:08.416Z,1.43
2018-02-12T06:49:18.623Z,1.43
2018-02-12T06:50:28.771Z,1.5
2018-02-12T06:51:38.626Z,1.54
2018-02-12T06:52:49.731Z,1.55
2018-02-12T06:53:59.874Z,1.51
2018-02-12T06:55:09.985Z,1.5
2018-02-12T06:56:20.111Z,1.53
2018-02-12T06:57:30.230Z,1.5
2018-02-12T06:58:40.079Z,1.55
2018-02-12T06:59:50.265Z,1.7
2018-02-12T07:01:00.452Z,1.64
2018-02-12T07:02:10.625Z,1.54
2018-02-12T07:03:20.840Z,1.57
2018-02-12T07:04:30.687Z,1.51
2018-02-12T07:05:40.610Z,1.57
2018-02-12T07:06:50.473Z,1.53
2018-02-12T07:08:00.897Z,1.53
2018-02-12T07:09:11.032Z,1.43
2018-02-12T07:10:21.164Z,1.54
2018-02-12T07:11:31.296Z,1.51
2018-02-12T07:12:41.401Z,1.58
2018-02-12T07:13:51.349Z,1.58
2018-02-12T07:15:01.512Z,1.57
2018-02-12T07:16:11.702Z,1.58
2018-02-12T07:17:21.828Z,1.54
2018-02-12T07:18:31.936Z,1.47
2018-02-12T07:19:41.682Z,1.54
2018-02-12T07:20:51.800Z,1.57
2018-02-12T07:22:01.919Z,1.54
2018-02-12T07:23:12.050Z,1.54
2018-02-12T07:24:22.169Z,1.53
2018-02-12T07:25:32.313Z,1.53
2018-02-12T07:26:42.108Z,1.64
2018-02-12T07:27:52.270Z,1.58
2018-02-12T07:29:02.410Z,1.53
2018-02-12T07:30:12.519Z,1.53
2018-02-12T07:31:22.727Z,1.54
2018-02-12T07:32:32.687Z,1.54
2018-02-12T07:33:42.808Z,1.47
2018-02-12T07:34:52.991Z,1.47
2018-02-12T07:36:03.166Z,1.55
2018-02-12T07:37:13.319Z,1.55
2018-02-12T07:38:23.290Z,1.57
2018-02-12T07:39:33.429Z,1.57
2018-02-12T07:40:43.312Z,1.53
2018-02-12T07:41:53.423Z,1.57
2018-02-12T07:43:03.543Z,1.55
2018-02-12T07:44:13.669Z,1.53
2018-02-12T07:45:23.772Z,1.51
2018-02-12T07:46:33.890Z,1.53
2018-02-12T07:47:43.767Z,1.51
2018-02-12T07:48:53.900Z,1.55
2018-02-12T07:50:04.021Z,1.55
2018-02-12T07:51:13.884Z,1.6
2018-02-12T07:52:24.026Z,1.57
2018-02-12T07:53:34.135Z,1.69
2018-02-12T07:54:43.630Z,1.76
2018-02-12T07:55:53.765Z,1.74
2018-02-12T07:57:03.874Z,1.77
2018-02-12T07:58:14.010Z,1.67
2018-02-12T07:59:23.568Z,1.69
2018-02-12T08:00:33.704Z,1.76
2018-02-12T08:01:43.660Z,1.69
2018-02-12T08:02:53.924Z,1.74
2018-02-12T08:04:04.047Z,1.8
2018-02-12T08:05:13.911Z,1.76
2018-02-12T08:06:24.052Z,1.79
2018-02-12T08:07:33.978Z,1.74
2018-02-12T08:08:44.091Z,1.74
2018-02-12T08:09:54.210Z,1.73
2018-02-12T08:11:03.808Z,1.77
2018-02-12T08:12:14.026Z,1.77
2018-02-12T08:13:24.147Z,1.74
2018-02-12T08:14:34.045Z,1.76
2018-02-12T08:15:44.170Z,1.8
2018-02-12T08:16:54.326Z,1.9
2018-02-12T08:18:04.450Z,1.94
2018-02-12T08:19:14.618Z,2.06
2018-02-12T08:20:24.742Z,2.12
2018-02-12T08:21:35.072Z,2.31
2018-02-12T08:22:45.252Z,2.28
2018-02-12T08:23:55.434Z,2.44
2018-02-12T08:25:05.588Z,2.77
2018-02-12T08:26:15.878Z,2.96
2018-02-12T08:27:26.074Z,3.1
2018-02-12T08:28:36.271Z,3.21
2018-02-12T08:29:46.543Z,3.29
2018-02-12T08:30:56.728Z,3.31
2018-02-12T08:32:06.916Z,3.42
2018-02-12T08:33:17.050Z,3.47
2018-02-12T08:34:27.165Z,3.46
2018-02-12T08:35:37.065Z,3.37
2018-02-12T08:36:47.195Z,3.44
2018-02-12T08:37:57.320Z,3.42
2018-02-12T08:39:07.435Z,3.43
2018-02-12T08:40:17.578Z,3.34
2018-02-12T08:41:27.803Z,3.25
2018-02-12T08:42:38.008Z,3.26
2018-02-12T08:43:48.188Z,3.31
2018-02-12T08:44:58.205Z,3.28
2018-02-12T08:46:08.063Z,3.85
2018-02-12T08:47:18.215Z,4.53
2018-02-12T08:48:28.357Z,5.17
2018-02-12T08:49:38.490Z,5.54
2018-02-12T08:50:48.356Z,5.83
2018-02-12T08:51:58.460Z,6.16
2018-02-12T08:53:08.317Z,6.53
2018-02-12T08:54:18.431Z,6.92
2018-02-12T08:55:28.574Z,7.21
2018-02-12T08:56:38.746Z,7.51
2018-02-12T08:57:48.984Z,7.58
2018-02-12T08:58:59.177Z,7.8
2018-02-12T09:00:09.348Z,7.64
2018-02-12T09:01:19.722Z,8.1
2018-02-12T09:02:29.848Z,8.49
2018-02-12T09:03:40.056Z,8.83
2018-02-12T09:04:50.295Z,9.35
2018-02-12T09:06:00.565Z,9.29
2018-02-12T09:07:10.707Z,9.44
2018-02-12T09:08:20.914Z,9.83
2018-02-12T09:09:30.815Z,10.19
2018-02-12T09:10:40.954Z,10.37
2018-02-12T09:11:51.071Z,10.51
2018-02-12T09:13:01.367Z,10.1
2018-02-12T09:14:11.295Z,9.63
2018-02-12T09:15:21.245Z,9.17
2018-02-12T09:16:31.170Z,8.64
2018-02-12T09:17:41.295Z,8.17
2018-02-12T09:18:52.447Z,7.73
2018-02-12T09:20:02.563Z,7.11
2018-02-12T09:21:12.920Z,7.15
2018-02-12T09:22:23.116Z,7.59
2018-02-12T09:23:33.085Z,8.12
2018-02-12T09:24:43.211Z,8.61
2018-02-12T09:25:53.069Z,9.17
2018-02-12T09:27:03.190Z,9.74
2018-02-12T09:28:14.299Z,9.84
2018-02-12T09:29:24.498Z,9.74
2018-02-12T09:30:34.656Z,9.88
2018-02-12T09:31:44.801Z,10.17
2018-02-12T09:32:55.095Z,10.48
2018-02-12T09:34:05.338Z,10.72
2018-02-12T09:35:15.506Z,10.84
2018-02-12T09:36:25.881Z,11.08
2018-02-12T09:37:36.012Z,11.16
2018-02-12T09:38:46.226Z,11.52
2018-02-12T09:39:56.371Z,11.76
2018-02-12T09:41:06.497Z,11.49
2018-02-12T09:42:17.605Z,10.98
2018-02-12T09:43:27.777Z,10.58
2018-02-12T09:44:37.941Z,10.32
2018-02-12T09:45:48.065Z,9.91
2018-02-12T09:46:58.197Z,10.18
2018-02-12T09:48:08.474Z,10.37
2018-02-12T09:49:18.752Z,10.55
2018-02-12T09:50:28.923Z,10.72
2018-02-12T09:51:39.115Z,10.79
2018-02-12T09:52:49.445Z,11.02
2018-02-12T09:53:59.615Z,11.15
2018-02-12T09:55:10.692Z,11.31
2018-02-12T09:56:20.828Z,11.39
2018-02-12T09:57:30.691Z,11.34
2018-02-12T09:58:40.880Z,11.34
2018-02-12T09:59:50.847Z,11.31
2018-02-12T10:01:01.003Z,11.4
2018-02-12T10:02:11.177Z,11.49
2018-02-12T10:03:21.419Z,11.4
2018-02-12T10:04:31.605Z,11.4
2018-02-12T10:05:41.490Z,11.24
2018-02-12T10:06:51.614Z,11.09
2018-02-12T10:08:01.764Z,10.55
2018-02-12T10:09:11.761Z,10.29
2018-02-12T10:10:21.897Z,10.3
2018-02-12T10:11:32.037Z,10.32
2018-02-12T10:12:42.234Z,10.15
2018-02-12T10:13:52.116Z,10.15
2018-02-12T10:15:02.267Z,10.18
2018-02-12T10:16:12.159Z,10.37
2018-02-12T10:17:22.292Z,10.66
2018-02-12T10:18:32.455Z,10.87
2018-02-12T10:19:42.636Z,10.88
2018-02-12T10:20:52.819Z,11.12
2018-02-12T10:22:03.069Z,11.24
2018-02-12T10:23:13.199Z,11.24
2018-02-12T10:24:23.491Z,11.34
2018-02-12T10:25:33.686Z,11.49
2018-02-12T10:26:43.928Z,11.69
2018-02-12T10:27:54.070Z,11.9
2018-02-12T10:29:04.343Z,12.07
2018-02-12T10:30:14.525Z,11.97
2018-02-12T10:31:24.827Z,11.79
2018-02-12T10:32:34.997Z,11.76
2018-02-12T10:33:45.245Z,11.8
2018-02-12T10:34:55.463Z,11.77
2018-02-12T10:36:05.720Z,11.72
2018-02-12T10:37:15.903Z,11.58
2018-02-12T10:38:26.094Z,11.79
2018-02-12T10:39:36.353Z,12.16
2018-02-12T10:40:46.338Z,12.27
2018-02-12T10:41:56.499Z,12.53
2018-02-12T10:43:06.644Z,12.55
2018-02-12T10:44:16.829Z,12.53
2018-02-12T10:45:27.005Z,12.42
2018-02-12T10:46:37.150Z,12.53
2018-02-12T10:47:47.408Z,12.2
2018-02-12T10:48:57.599Z,11.83
2018-02-12T10:50:07.800Z,11.43
2018-02-12T10:51:17.776Z,11.2
2018-02-12T10:52:27.955Z,10.7
2018-02-12T10:53:37.828Z,10.3
2018-02-12T10:54:47.916Z,9.93
2018-02-12T10:55:58.120Z,9.6
2018-02-12T10:57:08.272Z,9.29
2018-02-12T10:58:18.440Z,8.9
2018-02-12T10:59:28.574Z,8.63
2018-02-12T11:00:38.717Z,8.31
2018-02-12T11:01:48.882Z,7.99
2018-02-12T11:02:59.021Z,7.82
2018-02-12T11:04:09.176Z,7.61
2018-02-12T11:05:19.316Z,7.36
2018-02-12T11:06:29.510Z,7.39
2018-02-12T11:07:39.379Z,7.11
2018-02-12T11:08:49.552Z,6.93
2018-02-12T11:09:59.703Z,6.82
2018-02-12T11:11:09.891Z,6.71
2018-02-12T11:12:20.737Z,6.66
2018-02-12T11:13:30.959Z,6.42
2018-02-12T11:14:41.092Z,6.27
2018-02-12T11:15:51.334Z,6.01
2018-02-12T11:17:01.485Z,5.86
2018-02-12T11:18:11.640Z,5.9
2018-02-12T11:19:21.513Z,5.72
2018-02-12T11:20:31.670Z,5.58
2018-02-12T11:21:41.921Z,5.51
2018-02-12T11:22:52.105Z,5.43
2018-02-12T11:24:01.872Z,5.29
2018-02-12T11:25:12.053Z,5.31
2018-02-12T11:26:22.201Z,5.16
2018-02-12T11:27:32.344Z,5.1
2018-02-12T11:28:42.457Z,5.04
2018-02-12T11:29:52.579Z,5.04
2018-02-12T11:31:02.703Z,4.93
2018-02-12T11:32:12.839Z,4.88
2018-02-12T11:33:22.615Z,4.88
2018-02-12T11:34:32.479Z,4.78
2018-02-12T11:35:42.661Z,4.7
2018-02-12T11:36:52.528Z,4.73
2018-02-12T11:38:02.407Z,4.71
2018-02-12T11:39:12.533Z,4.71
2018-02-12T11:40:22.465Z,4.71
2018-02-12T11:41:32.640Z,4.65
2018-02-12T11:42:42.793Z,4.52
2018-02-12T11:43:52.914Z,4.46
2018-02-12T11:45:02.919Z,4.52
2018-02-12T11:46:13.266Z,4.57
2018-02-12T11:47:23.044Z,4.56
2018-02-12T11:48:33.183Z,4.53
2018-02-12T11:49:43.293Z,4.56
2018-02-12T11:50:53.249Z,4.55
2018-02-12T11:52:03.398Z,4.52
2018-02-12T11:53:13.544Z,4.56
2018-02-12T11:54:23.743Z,4.67
2018-02-12T11:55:33.959Z,4.57
2018-02-12T11:56:44.097Z,4.67
2018-02-12T11:57:54.359Z,4.63
2018-02-12T11:59:04.343Z,4.75
2018-02-12T12:00:14.470Z,4.75
2018-02-12T12:01:24.826Z,4.85
2018-02-12T12:02:34.961Z,4.86
2018-02-12T12:03:45.085Z,4.85
2018-02-12T12:04:55.409Z,4.78
2018-02-12T12:06:05.549Z,4.73
2018-02-12T12:07:15.326Z,4.75
2018-02-12T12:08:25.684Z,4.65
2018-02-12T12:09:35.830Z,4.67
2018-02-12T12:10:46.278Z,4.52
2018-02-12T12:11:56.549Z,4.55
2018-02-12T12:13:06.786Z,4.46
2018-02-12T12:14:16.906Z,4.41
2018-02-12T12:15:27.075Z,4.38
2018-02-12T12:16:37.195Z,4.37
2018-02-12T12:17:47.531Z,4.46
2018-02-12T12:18:57.662Z,4.3
2018-02-12T12:20:07.796Z,4.19
2018-02-12T12:21:17.948Z,4.22
2018-02-12T12:22:28.100Z,4
2018-02-12T12:23:38.237Z,4.03
2018-02-12T12:24:48.459Z,4.12
2018-02-12T12:25:58.326Z,4.01
2018-02-12T12:27:08.501Z,4.03
2018-02-12T12:28:18.633Z,4.05
2018-02-12T12:29:28.764Z,4.09
2018-02-12T12:30:38.891Z,4.09
2018-02-12T12:31:48.789Z,4.2
2018-02-12T12:32:58.907Z,4.19
2018-02-12T12:34:10.006Z,4.2
2018-02-12T12:35:20.125Z,4.27
2018-02-12T12:36:30.388Z,4.3
2018-02-12T12:37:40.443Z,4.4
2018-02-12T12:38:50.680Z,4.52
2018-02-12T12:40:00.556Z,4.53
2018-02-12T12:41:10.715Z,4.52
2018-02-12T12:42:20.959Z,4.55
2018-02-12T12:43:31.198Z,4.52
2018-02-12T12:44:41.342Z,4.65
2018-02-12T12:45:51.561Z,4.65
2018-02-12T12:47:01.750Z,4.78
2018-02-12T12:48:11.984Z,4.83
2018-02-12T12:49:22.114Z,4.95
2018-02-12T12:50:32.430Z,4.95
2018-02-12T12:51:43.587Z,5
2018-02-12T12:52:53.924Z,5.06
2018-02-12T12:54:04.154Z,5.14
2018-02-12T12:55:14.318Z,5.28
2018-02-12T12:56:24.496Z,5.25
2018-02-12T12:57:34.687Z,5.36
2018-02-12T12:58:44.828Z,5.54
2018-02-12T12:59:54.720Z,5.72
2018-02-12T13:01:04.937Z,5.74
2018-02-12T13:02:15.068Z,5.98
2018-02-12T13:03:24.830Z,6.05
2018-02-12T13:04:34.754Z,6.05
2018-02-12T13:05:44.646Z,6.06
2018-02-12T13:06:54.759Z,6.06
2018-02-12T13:08:04.886Z,6.06
2018-02-12T13:09:15.089Z,5.96
2018-02-12T13:10:25.233Z,5.68
2018-02-12T13:11:35.426Z,5.54
2018-02-12T13:12:45.585Z,5.41
2018-02-12T13:13:55.856Z,5.35
2018-02-12T13:15:06.110Z,5.31
2018-02-12T13:16:16.384Z,5.18
2018-02-12T13:17:26.514Z,5.29
2018-02-12T13:18:36.647Z,5.18
2018-02-12T13:19:46.770Z,5.21
2018-02-12T13:20:56.933Z,5.25
2018-02-12T13:22:07.070Z,5.31
2018-02-12T13:23:16.924Z,5.54
2018-02-12T13:24:27.070Z,5.79
2018-02-12T13:25:37.183Z,5.99
2018-02-12T13:26:47.349Z,6.2
2018-02-12T13:27:57.520Z,6.52
2018-02-12T13:29:07.698Z,6.59
2018-02-12T13:30:18.534Z,6.84
2018-02-12T13:31:28.689Z,6.92
2018-02-12T13:32:38.924Z,7.02
2018-02-12T13:33:48.797Z,7.1
2018-02-12T13:34:58.653Z,6.99
2018-02-12T13:36:08.907Z,6.96
2018-02-12T13:37:19.048Z,6.82
2018-02-12T13:38:29.168Z,6.75
2018-02-12T13:39:39.324Z,6.59
2018-02-12T13:40:49.465Z,6.46
2018-02-12T13:41:59.357Z,6.38
2018-02-12T13:43:09.609Z,6.24
2018-02-12T13:44:19.796Z,6.11
2018-02-12T13:45:30.088Z,6.02
2018-02-12T13:46:41.194Z,5.71
2018-02-12T13:47:51.366Z,5.59
2018-02-12T13:49:01.613Z,5.4
2018-02-12T13:50:11.825Z,5.21
2018-02-12T13:51:22.048Z,5.11
2018-02-12T13:52:32.221Z,4.99
2018-02-12T13:53:42.500Z,4.95
2018-02-12T13:54:52.694Z,4.83
2018-02-12T13:56:02.592Z,4.85
2018-02-12T13:57:12.737Z,4.85
2018-02-12T13:58:22.864Z,4.77
2018-02-12T13:59:32.997Z,4.68
2018-02-12T14:00:43.138Z,4.65
2018-02-12T14:01:53.332Z,4.5
2018-02-12T14:03:03.492Z,4.41
2018-02-12T14:04:13.631Z,4.4
2018-02-12T14:05:23.776Z,4.38
2018-02-12T14:06:33.911Z,4.3
2018-02-12T14:07:44.086Z,4.23
2018-02-12T14:08:54.273Z,4.22
2018-02-12T14:10:04.638Z,4.18
2018-02-12T14:11:14.861Z,4.25
2018-02-12T14:12:25.052Z,4.2
2018-02-12T14:13:35.261Z,4.23
2018-02-12T14:14:45.480Z,4.22
2018-02-12T14:15:55.360Z,4.12
2018-02-12T14:17:05.488Z,4.16
2018-02-12T14:18:15.399Z,4.15
2018-02-12T14:19:25.539Z,4.13
2018-02-12T14:20:35.421Z,4.04
2018-02-12T14:21:45.569Z,4
2018-02-12T14:22:56.715Z,4.12
2018-02-12T14:24:06.839Z,4.05
2018-02-12T14:25:16.965Z,4.04
2018-02-12T14:26:27.121Z,4.12
2018-02-12T14:27:37.310Z,4.13
2018-02-12T14:28:47.439Z,4.16
2018-02-12T14:29:57.565Z,4.19
2018-02-12T14:31:07.736Z,4.2
2018-02-12T14:32:17.954Z,4.19
2018-02-12T14:33:28.077Z,4.19
2018-02-12T14:34:38.230Z,4.34
2018-02-12T14:35:48.494Z,4.27
2018-02-12T14:36:58.169Z,4.33
2018-02-12T14:38:08.405Z,4.34
2018-02-12T14:39:18.585Z,4.22
2018-02-12T14:40:28.724Z,4.23
2018-02-12T14:41:38.866Z,4.19
2018-02-12T14:42:48.996Z,4.25
2018-02-12T14:43:59.143Z,4.23
2018-02-12T14:45:09.384Z,4.16
2018-02-12T14:46:19.593Z,4.04
2018-02-12T14:47:29.755Z,4.12
2018-02-12T14:48:40.027Z,4.03
2018-02-12T14:49:50.187Z,4.04
2018-02-12T14:51:00.417Z,3.94
2018-02-12T14:52:10.691Z,3.85
2018-02-12T14:53:20.919Z,3.79
2018-02-12T14:54:31.075Z,3.72
2018-02-12T14:55:41.342Z,3.69
2018-02-12T14:56:51.541Z,3.65
2018-02-12T14:58:01.762Z,3.73
2018-02-12T14:59:11.992Z,3.69
2018-02-12T15:00:22.181Z,3.67
2018-02-12T15:01:32.452Z,3.64
2018-02-12T15:02:42.325Z,3.65
2018-02-12T15:03:52.466Z,3.58
2018-02-12T15:05:02.230Z,3.59
2018-02-12T15:06:12.103Z,3.58
2018-02-12T15:07:22.228Z,3.58
2018-02-12T15:08:32.373Z,3.54
2018-02-12T15:09:42.565Z,3.5
2018-02-12T15:10:52.724Z,3.52
2018-02-12T15:12:02.868Z,3.44
2018-02-12T15:13:13.115Z,3.4
2018-02-12T15:14:24.230Z,3.42
2018-02-12T15:15:34.614Z,3.4
2018-02-12T15:16:44.851Z,3.42
2018-02-12T15:17:55.031Z,3.43
2018-02-12T15:19:05.313Z,3.43
2018-02-12T15:20:15.429Z,3.39
2018-02-12T15:21:25.584Z,3.32
2018-02-12T15:22:35.769Z,3.22
2018-02-12T15:23:45.624Z,3.28
2018-02-12T15:24:55.912Z,3.31
2018-02-12T15:26:05.796Z,3.29
2018-02-12T15:27:15.934Z,3.26
2018-02-12T15:28:26.084Z,3.21
2018-02-12T15:29:37.418Z,3.19
2018-02-12T15:30:48.532Z,3.13
2018-02-12T15:31:58.703Z,3.18
2018-02-12T15:33:08.848Z,3.11
2018-02-12T15:34:18.998Z,3.1